Wednesday, April 01, 2015
03:10 UTC
  |  Log In   |  Register Free
Airport Search:

Owosso Community Airport
(KRNP)

Owosso Community Airport Diagram
No Airport Diagram Available

FAA data valid effective March 05, 2015 - April 30, 2015 (unless otherwise noted).

 
 
 
 
 
 
 
 
 
 
 
 
 
 

Current Aviation Weather for Owosso Community Airport (KRNP)

The most recent METAR observation for KRNP was updated at: 0213
METAR Summary (Translated METAR)
KRNP
010155Z AUTO 00000KT 10SM CLR 04/M02 A2994 RMK AO2 T00401016
K4M4
140000Z VRB05KT 25SM SKC 16/04
(13.4 nm NW from KRNP)
KFNT
010253Z 18003KT 10SM CLR 03/M02 A2995 RMK AO2 SLP150 T00281022 50007
(17.4 nm SE from KRNP)
TAF Summary (Translated TAF)
KFNT
(17.4 nm SE from KRNP)
311738Z 3118/0118 02010KT P6SM OVC015 FM312000 33007KT P6SM SCT050 FM010400 24005KT 2SM BR BKN050 FM011400 36004KT P6SM SCT035
  Airport Weather Conditions for KRNP

 Current Weather at RNP
39° F
Fair
North winds at 0.0 mph
RNP NOAA Radar

Pressure: 29.94 in
Humidity: 67%
Wind: Calm
Dew Point: 29.1°F
Visibility: 10.00 mi


Airport Weather Forecast for KRNP

Translated METAR and TAF for KRNP
Translated METAR for KRNP (0309 UTC 01 April 2015)
found at http://aviationweather.gov/adds/metars/
 
METAR text: KRNP 010255Z AUTO 20003KT 10SM CLR 04/M02 A2994 RMK AO2 T00351016
Conditions at: KRNP (OWOSSO , MI, US) observed 0255 UTC 01 April 2015
Temperature: 3.5°C (38°F)
Dewpoint: -1.6°C (29°F) [RH = 69%]
Pressure (altimeter): 29.94 inches Hg (1014.0 mb)
Winds: from the SSW (200 degrees) at 3 MPH (3 knots; 1.6 m/s)
Visibility: 10 or more miles (16+ km)
Ceiling: at least 12,000 feet AGL
Clouds: sky clear below 12,000 feet AGL
Weather: automated observation with no human augmentation;
there may or may not be significant weather present at this time
Translated TAF for KRNP

There is no translated TAF available for this airport

Find All Airport Services Find A Hotel Find A Rental Car Find A Golf Course Find A Restaurant $100 Hamburger



FBO's on the Field
FBO Company Facility Photos Services Transportation Aviation Fuel Prices: Prices include tax
Catering Weather Repair Courtesy Rental Type 100LL JetA JetA+ MOGAS 8087
 
Owosso Community Airport

This FBO has not yet been rated
FS:Avfuel
Last Updated: Mar-04
Login to update fuel prices
SS:
Contact Owosso Community AirportMore FBO Information
 
Add another FBO Facility Photos Catering Weather Repair Courtesy Rental Type 100LL JetA JetA+ MOGAS 8087
Services Transportation Aviation Fuel Prices: Prices include tax


model-print
model-print
model-print
model-print